sensor_id;sensor_type;location;lat;lon;timestamp;temperature;humidity
53926;DHT22;39836;52.754;6.866;2024-02-15T00:02:21;12.80;88.30
53926;DHT22;39836;52.754;6.866;2024-02-15T00:04:46;12.70;88.30
53926;DHT22;39836;52.754;6.866;2024-02-15T00:07:12;12.80;88.30
53926;DHT22;39836;52.754;6.866;2024-02-15T00:09:38;12.80;88.30
53926;DHT22;39836;52.754;6.866;2024-02-15T00:12:03;12.70;88.30
53926;DHT22;39836;52.754;6.866;2024-02-15T00:14:30;12.70;88.30
53926;DHT22;39836;52.754;6.866;2024-02-15T00:16:57;12.70;88.30
53926;DHT22;39836;52.754;6.866;2024-02-15T00:19:23;12.80;88.40
53926;DHT22;39836;52.754;6.866;2024-02-15T00:21:49;12.80;88.40
53926;DHT22;39836;52.754;6.866;2024-02-15T00:24:15;12.80;88.40
53926;DHT22;39836;52.754;6.866;2024-02-15T00:26:41;12.80;88.40
53926;DHT22;39836;52.754;6.866;2024-02-15T00:29:08;12.70;88.40
53926;DHT22;39836;52.754;6.866;2024-02-15T00:31:35;12.70;88.40
53926;DHT22;39836;52.754;6.866;2024-02-15T00:34:04;12.70;88.40
53926;DHT22;39836;52.754;6.866;2024-02-15T00:36:29;12.60;88.40
53926;DHT22;39836;52.754;6.866;2024-02-15T00:38:55;12.60;88.40
53926;DHT22;39836;52.754;6.866;2024-02-15T00:41:21;12.60;88.40
53926;DHT22;39836;52.754;6.866;2024-02-15T00:43:47;12.60;88.40
53926;DHT22;39836;52.754;6.866;2024-02-15T00:46:13;12.60;88.40
53926;DHT22;39836;52.754;6.866;2024-02-15T00:48:39;12.60;88.40
53926;DHT22;39836;52.754;6.866;2024-02-15T00:51:06;12.60;88.40
53926;DHT22;39836;52.754;6.866;2024-02-15T00:53:32;12.60;88.40
53926;DHT22;39836;52.754;6.866;2024-02-15T00:55:57;12.60;88.50
53926;DHT22;39836;52.754;6.866;2024-02-15T00:58:23;12.60;88.50
53926;DHT22;39836;52.754;6.866;2024-02-15T01:00:50;12.50;88.40
53926;DHT22;39836;52.754;6.866;2024-02-15T01:03:16;12.60;88.50
53926;DHT22;39836;52.754;6.866;2024-02-15T01:05:42;12.60;88.60
53926;DHT22;39836;52.754;6.866;2024-02-15T01:08:07;12.60;88.50
53926;DHT22;39836;52.754;6.866;2024-02-15T01:10:34;12.50;88.40
53926;DHT22;39836;52.754;6.866;2024-02-15T01:13:00;12.50;88.40
53926;DHT22;39836;52.754;6.866;2024-02-15T01:15:26;12.60;88.50
53926;DHT22;39836;52.754;6.866;2024-02-15T01:17:52;12.60;88.40
53926;DHT22;39836;52.754;6.866;2024-02-15T01:20:17;12.50;88.40
53926;DHT22;39836;52.754;6.866;2024-02-15T01:22:43;12.50;88.40
53926;DHT22;39836;52.754;6.866;2024-02-15T01:25:10;12.50;88.40
53926;DHT22;39836;52.754;6.866;2024-02-15T01:27:36;12.50;88.40
53926;DHT22;39836;52.754;6.866;2024-02-15T01:30:02;12.50;88.40
53926;DHT22;39836;52.754;6.866;2024-02-15T01:32:29;12.50;88.40
53926;DHT22;39836;52.754;6.866;2024-02-15T01:34:56;12.50;88.40
53926;DHT22;39836;52.754;6.866;2024-02-15T01:37:22;12.50;88.40
53926;DHT22;39836;52.754;6.866;2024-02-15T01:39:48;12.50;88.40
53926;DHT22;39836;52.754;6.866;2024-02-15T01:42:14;12.50;88.40
53926;DHT22;39836;52.754;6.866;2024-02-15T01:44:40;12.50;88.30
53926;DHT22;39836;52.754;6.866;2024-02-15T01:47:07;12.50;88.30
53926;DHT22;39836;52.754;6.866;2024-02-15T01:49:34;12.50;88.30
53926;DHT22;39836;52.754;6.866;2024-02-15T01:52:00;12.50;88.40
53926;DHT22;39836;52.754;6.866;2024-02-15T01:54:28;12.50;88.30
53926;DHT22;39836;52.754;6.866;2024-02-15T01:56:54;12.50;88.30
53926;DHT22;39836;52.754;6.866;2024-02-15T01:59:22;12.60;88.40
53926;DHT22;39836;52.754;6.866;2024-02-15T02:01:48;12.60;88.30
53926;DHT22;39836;52.754;6.866;2024-02-15T02:04:15;12.60;88.40
53926;DHT22;39836;52.754;6.866;2024-02-15T02:06:41;12.60;88.40
53926;DHT22;39836;52.754;6.866;2024-02-15T02:09:10;12.60;88.40
53926;DHT22;39836;52.754;6.866;2024-02-15T02:11:38;12.60;88.40
53926;DHT22;39836;52.754;6.866;2024-02-15T02:14:04;12.50;88.30
53926;DHT22;39836;52.754;6.866;2024-02-15T02:16:31;12.60;88.30
53926;DHT22;39836;52.754;6.866;2024-02-15T02:19:01;12.50;88.30
53926;DHT22;39836;52.754;6.866;2024-02-15T02:21:28;12.60;88.30
53926;DHT22;39836;52.754;6.866;2024-02-15T02:23:56;12.60;88.30
53926;DHT22;39836;52.754;6.866;2024-02-15T02:26:23;12.60;88.30
53926;DHT22;39836;52.754;6.866;2024-02-15T02:28:49;12.60;88.30
53926;DHT22;39836;52.754;6.866;2024-02-15T02:31:15;12.50;88.30
53926;DHT22;39836;52.754;6.866;2024-02-15T02:33:42;12.60;88.30
53926;DHT22;39836;52.754;6.866;2024-02-15T02:36:08;12.60;88.30
53926;DHT22;39836;52.754;6.866;2024-02-15T02:38:36;12.70;88.40
53926;DHT22;39836;52.754;6.866;2024-02-15T02:41:06;12.60;88.30
53926;DHT22;39836;52.754;6.866;2024-02-15T02:43:32;12.60;88.30
53926;DHT22;39836;52.754;6.866;2024-02-15T02:45:58;12.60;88.30
53926;DHT22;39836;52.754;6.866;2024-02-15T02:48:23;12.70;88.30
53926;DHT22;39836;52.754;6.866;2024-02-15T02:50:50;12.70;88.30
53926;DHT22;39836;52.754;6.866;2024-02-15T02:53:16;12.70;88.30
53926;DHT22;39836;52.754;6.866;2024-02-15T02:55:42;12.70;88.30
53926;DHT22;39836;52.754;6.866;2024-02-15T02:58:08;12.70;88.30
53926;DHT22;39836;52.754;6.866;2024-02-15T03:00:34;12.70;88.30
53926;DHT22;39836;52.754;6.866;2024-02-15T03:03:00;12.70;88.30
53926;DHT22;39836;52.754;6.866;2024-02-15T03:05:26;12.70;88.30
53926;DHT22;39836;52.754;6.866;2024-02-15T03:07:52;12.70;88.40
53926;DHT22;39836;52.754;6.866;2024-02-15T03:10:18;12.80;88.40
53926;DHT22;39836;52.754;6.866;2024-02-15T03:12:44;12.70;88.30
53926;DHT22;39836;52.754;6.866;2024-02-15T03:15:13;12.70;88.30
53926;DHT22;39836;52.754;6.866;2024-02-15T03:17:40;12.70;88.30
53926;DHT22;39836;52.754;6.866;2024-02-15T03:20:10;12.80;88.30
53926;DHT22;39836;52.754;6.866;2024-02-15T03:22:59;12.70;88.30
53926;DHT22;39836;52.754;6.866;2024-02-15T03:25:27;12.70;88.30
53926;DHT22;39836;52.754;6.866;2024-02-15T03:27:56;12.80;88.30
53926;DHT22;39836;52.754;6.866;2024-02-15T03:30:25;12.70;88.30
53926;DHT22;39836;52.754;6.866;2024-02-15T03:32:51;12.70;88.30
53926;DHT22;39836;52.754;6.866;2024-02-15T03:35:18;12.70;88.30
53926;DHT22;39836;52.754;6.866;2024-02-15T03:37:44;12.80;88.30
53926;DHT22;39836;52.754;6.866;2024-02-15T03:40:10;12.80;88.30
53926;DHT22;39836;52.754;6.866;2024-02-15T03:42:36;12.80;88.30
53926;DHT22;39836;52.754;6.866;2024-02-15T03:45:03;12.80;88.30
53926;DHT22;39836;52.754;6.866;2024-02-15T03:47:32;12.80;88.30
53926;DHT22;39836;52.754;6.866;2024-02-15T03:49:59;12.90;88.30
53926;DHT22;39836;52.754;6.866;2024-02-15T03:52:25;12.80;88.30
53926;DHT22;39836;52.754;6.866;2024-02-15T03:54:51;12.80;88.30
53926;DHT22;39836;52.754;6.866;2024-02-15T03:57:18;12.80;88.30
53926;DHT22;39836;52.754;6.866;2024-02-15T03:59:46;12.80;88.30
53926;DHT22;39836;52.754;6.866;2024-02-15T04:02:16;12.80;88.30
53926;DHT22;39836;52.754;6.866;2024-02-15T04:04:41;12.90;88.30
53926;DHT22;39836;52.754;6.866;2024-02-15T04:07:07;12.90;88.30
53926;DHT22;39836;52.754;6.866;2024-02-15T04:09:33;12.80;88.30
53926;DHT22;39836;52.754;6.866;2024-02-15T04:12:01;12.90;88.30
53926;DHT22;39836;52.754;6.866;2024-02-15T04:14:27;12.90;88.30
53926;DHT22;39836;52.754;6.866;2024-02-15T04:16:53;13.00;88.30
53926;DHT22;39836;52.754;6.866;2024-02-15T04:19:19;12.90;88.40
53926;DHT22;39836;52.754;6.866;2024-02-15T04:21:45;13.00;88.30
53926;DHT22;39836;52.754;6.866;2024-02-15T04:24:12;13.00;88.30
53926;DHT22;39836;52.754;6.866;2024-02-15T04:26:38;13.00;88.30
53926;DHT22;39836;52.754;6.866;2024-02-15T04:29:04;13.00;88.30
53926;DHT22;39836;52.754;6.866;2024-02-15T04:31:29;13.10;88.40
53926;DHT22;39836;52.754;6.866;2024-02-15T04:33:56;13.00;88.30
53926;DHT22;39836;52.754;6.866;2024-02-15T04:36:22;13.00;88.30
53926;DHT22;39836;52.754;6.866;2024-02-15T04:38:51;13.10;88.40
53926;DHT22;39836;52.754;6.866;2024-02-15T04:41:18;13.10;88.40
53926;DHT22;39836;52.754;6.866;2024-02-15T04:43:49;13.10;88.40
53926;DHT22;39836;52.754;6.866;2024-02-15T04:46:15;13.10;88.40
53926;DHT22;39836;52.754;6.866;2024-02-15T04:48:41;13.10;88.40
53926;DHT22;39836;52.754;6.866;2024-02-15T04:51:09;13.20;88.40
53926;DHT22;39836;52.754;6.866;2024-02-15T04:53:36;13.10;88.40
53926;DHT22;39836;52.754;6.866;2024-02-15T04:56:07;13.10;88.40
53926;DHT22;39836;52.754;6.866;2024-02-15T04:58:40;13.20;88.40
53926;DHT22;39836;52.754;6.866;2024-02-15T05:01:14;13.10;88.40
53926;DHT22;39836;52.754;6.866;2024-02-15T05:03:44;13.20;88.40
53926;DHT22;39836;52.754;6.866;2024-02-15T05:06:10;13.20;88.40
53926;DHT22;39836;52.754;6.866;2024-02-15T05:08:39;13.20;88.50
53926;DHT22;39836;52.754;6.866;2024-02-15T05:11:11;13.10;88.40
53926;DHT22;39836;52.754;6.866;2024-02-15T05:13:45;13.20;88.50
53926;DHT22;39836;52.754;6.866;2024-02-15T05:16:11;13.20;88.50
53926;DHT22;39836;52.754;6.866;2024-02-15T05:18:37;13.10;88.40
53926;DHT22;39836;52.754;6.866;2024-02-15T05:21:05;13.10;88.50
53926;DHT22;39836;52.754;6.866;2024-02-15T05:23:35;13.10;88.50
53926;DHT22;39836;52.754;6.866;2024-02-15T05:26:02;13.10;88.50
53926;DHT22;39836;52.754;6.866;2024-02-15T05:28:28;13.10;88.50
53926;DHT22;39836;52.754;6.866;2024-02-15T05:31:14;13.10;88.50
53926;DHT22;39836;52.754;6.866;2024-02-15T05:33:44;13.10;88.50
53926;DHT22;39836;52.754;6.866;2024-02-15T05:36:11;13.10;88.50
53926;DHT22;39836;52.754;6.866;2024-02-15T05:38:37;13.10;88.50
53926;DHT22;39836;52.754;6.866;2024-02-15T05:41:03;13.10;88.50
53926;DHT22;39836;52.754;6.866;2024-02-15T05:43:28;13.10;88.50
53926;DHT22;39836;52.754;6.866;2024-02-15T05:45:54;13.10;88.50
53926;DHT22;39836;52.754;6.866;2024-02-15T05:48:24;13.00;88.50
53926;DHT22;39836;52.754;6.866;2024-02-15T05:50:50;13.10;88.50
53926;DHT22;39836;52.754;6.866;2024-02-15T05:53:16;13.00;88.50
53926;DHT22;39836;52.754;6.866;2024-02-15T05:55:41;13.00;88.50
53926;DHT22;39836;52.754;6.866;2024-02-15T05:58:09;13.00;88.50
53926;DHT22;39836;52.754;6.866;2024-02-15T06:00:37;13.10;88.60
53926;DHT22;39836;52.754;6.866;2024-02-15T06:03:04;13.10;88.60
53926;DHT22;39836;52.754;6.866;2024-02-15T06:05:31;13.10;88.60
53926;DHT22;39836;52.754;6.866;2024-02-15T06:07:58;13.10;88.60
53926;DHT22;39836;52.754;6.866;2024-02-15T06:10:24;13.10;88.60
53926;DHT22;39836;52.754;6.866;2024-02-15T06:12:51;13.10;88.60
53926;DHT22;39836;52.754;6.866;2024-02-15T06:15:17;13.00;88.60
53926;DHT22;39836;52.754;6.866;2024-02-15T06:17:43;13.10;88.60
53926;DHT22;39836;52.754;6.866;2024-02-15T06:20:15;13.10;88.60
53926;DHT22;39836;52.754;6.866;2024-02-15T06:22:43;13.10;88.70
53926;DHT22;39836;52.754;6.866;2024-02-15T06:25:10;13.10;88.70
53926;DHT22;39836;52.754;6.866;2024-02-15T06:27:37;13.00;88.60
53926;DHT22;39836;52.754;6.866;2024-02-15T06:30:07;13.10;88.70
53926;DHT22;39836;52.754;6.866;2024-02-15T06:32:51;13.10;88.70
53926;DHT22;39836;52.754;6.866;2024-02-15T06:35:37;13.00;88.70
53926;DHT22;39836;52.754;6.866;2024-02-15T06:38:21;13.00;88.70
53926;DHT22;39836;52.754;6.866;2024-02-15T06:41:05;13.10;88.70
53926;DHT22;39836;52.754;6.866;2024-02-15T06:43:31;13.00;88.70
53926;DHT22;39836;52.754;6.866;2024-02-15T06:45:58;12.90;88.70
53926;DHT22;39836;52.754;6.866;2024-02-15T06:48:24;12.90;88.70
53926;DHT22;39836;52.754;6.866;2024-02-15T06:50:51;12.90;88.70
53926;DHT22;39836;52.754;6.866;2024-02-15T06:53:17;13.00;88.70
53926;DHT22;39836;52.754;6.866;2024-02-15T06:55:46;13.00;88.70
53926;DHT22;39836;52.754;6.866;2024-02-15T06:58:15;13.00;88.70
53926;DHT22;39836;52.754;6.866;2024-02-15T07:00:42;13.10;88.80
53926;DHT22;39836;52.754;6.866;2024-02-15T07:03:08;13.00;88.80
53926;DHT22;39836;52.754;6.866;2024-02-15T07:05:34;13.00;88.80
53926;DHT22;39836;52.754;6.866;2024-02-15T07:08:01;13.00;88.80
53926;DHT22;39836;52.754;6.866;2024-02-15T07:10:26;13.00;88.80
53926;DHT22;39836;52.754;6.866;2024-02-15T07:12:52;13.00;88.80
53926;DHT22;39836;52.754;6.866;2024-02-15T07:15:18;13.10;88.80
53926;DHT22;39836;52.754;6.866;2024-02-15T07:17:43;13.10;88.80
53926;DHT22;39836;52.754;6.866;2024-02-15T07:20:12;13.00;88.80
53926;DHT22;39836;52.754;6.866;2024-02-15T07:22:45;13.10;88.90
53926;DHT22;39836;52.754;6.866;2024-02-15T07:25:11;13.10;88.90
53926;DHT22;39836;52.754;6.866;2024-02-15T07:27:37;13.10;88.90
53926;DHT22;39836;52.754;6.866;2024-02-15T07:30:03;13.00;88.80
53926;DHT22;39836;52.754;6.866;2024-02-15T07:32:31;13.00;88.90
53926;DHT22;39836;52.754;6.866;2024-02-15T07:34:57;13.10;88.90
53926;DHT22;39836;52.754;6.866;2024-02-15T07:37:23;13.10;88.90
53926;DHT22;39836;52.754;6.866;2024-02-15T07:39:54;13.00;88.90
53926;DHT22;39836;52.754;6.866;2024-02-15T07:42:20;13.00;88.90
53926;DHT22;39836;52.754;6.866;2024-02-15T07:44:46;13.10;88.90
53926;DHT22;39836;52.754;6.866;2024-02-15T07:47:11;13.00;88.90
53926;DHT22;39836;52.754;6.866;2024-02-15T07:49:37;13.00;88.90
53926;DHT22;39836;52.754;6.866;2024-02-15T07:52:03;12.90;88.90
53926;DHT22;39836;52.754;6.866;2024-02-15T07:54:30;13.00;88.90
53926;DHT22;39836;52.754;6.866;2024-02-15T07:56:59;13.00;88.90
53926;DHT22;39836;52.754;6.866;2024-02-15T07:59:24;13.00;88.90
53926;DHT22;39836;52.754;6.866;2024-02-15T08:01:50;13.00;88.90
53926;DHT22;39836;52.754;6.866;2024-02-15T08:04:16;13.00;88.90
53926;DHT22;39836;52.754;6.866;2024-02-15T08:06:50;13.00;88.90
53926;DHT22;39836;52.754;6.866;2024-02-15T08:09:19;13.00;88.90
53926;DHT22;39836;52.754;6.866;2024-02-15T08:11:49;12.90;88.90
53926;DHT22;39836;52.754;6.866;2024-02-15T08:14:15;12.90;88.90
53926;DHT22;39836;52.754;6.866;2024-02-15T08:16:40;13.00;88.90
53926;DHT22;39836;52.754;6.866;2024-02-15T08:19:06;12.90;88.90
53926;DHT22;39836;52.754;6.866;2024-02-15T08:21:34;13.00;88.90
53926;DHT22;39836;52.754;6.866;2024-02-15T08:24:02;13.00;88.90
53926;DHT22;39836;52.754;6.866;2024-02-15T08:26:39;13.00;88.90
53926;DHT22;39836;52.754;6.866;2024-02-15T08:29:05;13.10;89.00
53926;DHT22;39836;52.754;6.866;2024-02-15T08:31:35;13.10;89.00
53926;DHT22;39836;52.754;6.866;2024-02-15T08:34:04;13.10;89.00
53926;DHT22;39836;52.754;6.866;2024-02-15T08:36:36;13.00;88.90
53926;DHT22;39836;52.754;6.866;2024-02-15T08:39:01;13.10;89.00
53926;DHT22;39836;52.754;6.866;2024-02-15T08:41:29;13.10;89.00
53926;DHT22;39836;52.754;6.866;2024-02-15T08:43:55;13.10;89.00
53926;DHT22;39836;52.754;6.866;2024-02-15T08:46:24;13.10;89.00
53926;DHT22;39836;52.754;6.866;2024-02-15T08:48:52;13.00;89.00
53926;DHT22;39836;52.754;6.866;2024-02-15T08:51:18;13.10;89.00
53926;DHT22;39836;52.754;6.866;2024-02-15T08:53:46;13.10;89.00
53926;DHT22;39836;52.754;6.866;2024-02-15T08:56:12;13.10;89.00
53926;DHT22;39836;52.754;6.866;2024-02-15T08:58:37;13.20;89.00
53926;DHT22;39836;52.754;6.866;2024-02-15T09:01:05;13.10;89.00
53926;DHT22;39836;52.754;6.866;2024-02-15T09:03:33;13.20;89.00
53926;DHT22;39836;52.754;6.866;2024-02-15T09:05:58;13.20;89.00
53926;DHT22;39836;52.754;6.866;2024-02-15T09:08:28;13.10;89.10
53926;DHT22;39836;52.754;6.866;2024-02-15T09:10:55;13.20;89.10
53926;DHT22;39836;52.754;6.866;2024-02-15T09:13:23;13.10;89.00
53926;DHT22;39836;52.754;6.866;2024-02-15T09:15:48;13.10;89.00
53926;DHT22;39836;52.754;6.866;2024-02-15T09:18:15;13.10;89.00
53926;DHT22;39836;52.754;6.866;2024-02-15T09:20:43;13.20;89.10
53926;DHT22;39836;52.754;6.866;2024-02-15T09:23:12;13.20;89.10
53926;DHT22;39836;52.754;6.866;2024-02-15T09:25:40;13.10;89.00
53926;DHT22;39836;52.754;6.866;2024-02-15T09:28:06;13.10;89.00
53926;DHT22;39836;52.754;6.866;2024-02-15T09:30:31;13.20;89.10
53926;DHT22;39836;52.754;6.866;2024-02-15T09:32:58;13.20;89.10
53926;DHT22;39836;52.754;6.866;2024-02-15T09:35:25;13.20;89.10
53926;DHT22;39836;52.754;6.866;2024-02-15T09:37:51;13.20;89.10
53926;DHT22;39836;52.754;6.866;2024-02-15T09:40:18;13.30;89.10
53926;DHT22;39836;52.754;6.866;2024-02-15T09:42:45;13.20;89.10
53926;DHT22;39836;52.754;6.866;2024-02-15T09:45:13;13.30;89.10
53926;DHT22;39836;52.754;6.866;2024-02-15T09:47:40;13.30;89.10
53926;DHT22;39836;52.754;6.866;2024-02-15T09:50:13;13.30;89.10
53926;DHT22;39836;52.754;6.866;2024-02-15T09:52:40;13.40;89.10
53926;DHT22;39836;52.754;6.866;2024-02-15T09:55:09;13.30;89.10
53926;DHT22;39836;52.754;6.866;2024-02-15T09:57:39;13.30;89.10
53926;DHT22;39836;52.754;6.866;2024-02-15T10:00:06;13.40;89.10
53926;DHT22;39836;52.754;6.866;2024-02-15T10:02:43;13.40;89.10
53926;DHT22;39836;52.754;6.866;2024-02-15T10:05:10;13.30;89.10
53926;DHT22;39836;52.754;6.866;2024-02-15T10:07:39;13.30;89.10
53926;DHT22;39836;52.754;6.866;2024-02-15T10:10:38;13.40;89.10
53926;DHT22;39836;52.754;6.866;2024-02-15T10:13:03;13.40;89.20
53926;DHT22;39836;52.754;6.866;2024-02-15T10:15:36;13.40;89.20
53926;DHT22;39836;52.754;6.866;2024-02-15T10:20:36;13.40;89.20
53926;DHT22;39836;52.754;6.866;2024-02-15T10:23:11;13.50;89.20
53926;DHT22;39836;52.754;6.866;2024-02-15T10:25:38;13.50;89.20
53926;DHT22;39836;52.754;6.866;2024-02-15T10:28:05;13.60;89.20
53926;DHT22;39836;52.754;6.866;2024-02-15T10:30:37;13.60;89.20
53926;DHT22;39836;52.754;6.866;2024-02-15T10:33:03;13.60;89.30
53926;DHT22;39836;52.754;6.866;2024-02-15T10:35:30;13.60;89.30
53926;DHT22;39836;52.754;6.866;2024-02-15T10:38:11;13.60;89.30
53926;DHT22;39836;52.754;6.866;2024-02-15T10:40:39;13.70;89.30
53926;DHT22;39836;52.754;6.866;2024-02-15T10:43:09;13.60;89.30
53926;DHT22;39836;52.754;6.866;2024-02-15T10:45:39;13.70;89.40
53926;DHT22;39836;52.754;6.866;2024-02-15T10:48:11;13.70;89.30
53926;DHT22;39836;52.754;6.866;2024-02-15T10:50:41;13.80;89.30
53926;DHT22;39836;52.754;6.866;2024-02-15T10:53:21;13.80;89.40
53926;DHT22;39836;52.754;6.866;2024-02-15T10:55:57;13.70;89.30
53926;DHT22;39836;52.754;6.866;2024-02-15T10:58:26;13.80;89.40
53926;DHT22;39836;52.754;6.866;2024-02-15T11:00:58;13.70;89.30
53926;DHT22;39836;52.754;6.866;2024-02-15T11:03:35;13.80;89.40
53926;DHT22;39836;52.754;6.866;2024-02-15T11:06:02;13.80;89.40
53926;DHT22;39836;52.754;6.866;2024-02-15T11:08:32;13.80;89.40
53926;DHT22;39836;52.754;6.866;2024-02-15T11:10:58;13.80;89.40
53926;DHT22;39836;52.754;6.866;2024-02-15T11:13:24;13.90;89.40
53926;DHT22;39836;52.754;6.866;2024-02-15T11:15:50;13.90;89.40
53926;DHT22;39836;52.754;6.866;2024-02-15T11:18:47;13.80;89.40
53926;DHT22;39836;52.754;6.866;2024-02-15T11:21:55;13.70;89.40
53926;DHT22;39836;52.754;6.866;2024-02-15T11:24:31;13.70;89.40
53926;DHT22;39836;52.754;6.866;2024-02-15T11:27:05;13.70;89.40
53926;DHT22;39836;52.754;6.866;2024-02-15T11:29:52;13.70;89.40
53926;DHT22;39836;52.754;6.866;2024-02-15T11:32:45;13.70;89.40
53926;DHT22;39836;52.754;6.866;2024-02-15T11:35:23;13.60;89.40
53926;DHT22;39836;52.754;6.866;2024-02-15T11:43:07;13.50;89.30
53926;DHT22;39836;52.754;6.866;2024-02-15T11:45:34;13.50;89.30
53926;DHT22;39836;52.754;6.866;2024-02-15T11:48:11;13.60;89.30
53926;DHT22;39836;52.754;6.866;2024-02-15T11:50:38;13.50;89.30
53926;DHT22;39836;52.754;6.866;2024-02-15T11:53:08;13.50;89.30
53926;DHT22;39836;52.754;6.866;2024-02-15T11:55:38;13.60;89.30
53926;DHT22;39836;52.754;6.866;2024-02-15T11:58:04;13.50;89.30
53926;DHT22;39836;52.754;6.866;2024-02-15T12:00:33;13.60;89.30
53926;DHT22;39836;52.754;6.866;2024-02-15T12:03:18;13.60;89.30
53926;DHT22;39836;52.754;6.866;2024-02-15T12:06:03;13.50;89.30
53926;DHT22;39836;52.754;6.866;2024-02-15T12:08:48;13.60;89.30
53926;DHT22;39836;52.754;6.866;2024-02-15T12:11:33;13.60;89.30
53926;DHT22;39836;52.754;6.866;2024-02-15T12:14:17;13.60;89.30
53926;DHT22;39836;52.754;6.866;2024-02-15T12:19:49;13.60;89.30
53926;DHT22;39836;52.754;6.866;2024-02-15T12:22:28;13.60;89.30
53926;DHT22;39836;52.754;6.866;2024-02-15T12:25:00;13.60;89.30
53926;DHT22;39836;52.754;6.866;2024-02-15T12:27:26;13.60;89.30
53926;DHT22;39836;52.754;6.866;2024-02-15T12:29:59;13.50;89.30
53926;DHT22;39836;52.754;6.866;2024-02-15T12:32:26;13.60;89.30
53926;DHT22;39836;52.754;6.866;2024-02-15T12:34:53;13.50;89.30
53926;DHT22;39836;52.754;6.866;2024-02-15T12:37:21;13.50;89.30
53926;DHT22;39836;52.754;6.866;2024-02-15T12:39:49;13.50;89.30
53926;DHT22;39836;52.754;6.866;2024-02-15T12:42:18;13.50;89.30
53926;DHT22;39836;52.754;6.866;2024-02-15T12:44:46;13.50;89.30
53926;DHT22;39836;52.754;6.866;2024-02-15T12:47:22;13.50;89.30
53926;DHT22;39836;52.754;6.866;2024-02-15T12:49:48;13.50;89.30
53926;DHT22;39836;52.754;6.866;2024-02-15T12:55:20;13.50;89.30
53926;DHT22;39836;52.754;6.866;2024-02-15T12:57:49;13.50;89.30
53926;DHT22;39836;52.754;6.866;2024-02-15T13:00:21;13.50;89.30
53926;DHT22;39836;52.754;6.866;2024-02-15T13:02:48;13.50;89.20
53926;DHT22;39836;52.754;6.866;2024-02-15T13:05:17;13.50;89.20
53926;DHT22;39836;52.754;6.866;2024-02-15T13:07:51;13.50;89.20
53926;DHT22;39836;52.754;6.866;2024-02-15T13:10:17;13.60;89.30
53926;DHT22;39836;52.754;6.866;2024-02-15T13:12:46;13.60;89.30
53926;DHT22;39836;52.754;6.866;2024-02-15T13:15:14;13.50;89.20
53926;DHT22;39836;52.754;6.866;2024-02-15T13:17:43;13.60;89.30
53926;DHT22;39836;52.754;6.866;2024-02-15T13:20:14;13.60;89.30
53926;DHT22;39836;52.754;6.866;2024-02-15T13:22:42;13.60;89.30
53926;DHT22;39836;52.754;6.866;2024-02-15T13:25:09;13.60;89.30
53926;DHT22;39836;52.754;6.866;2024-02-15T13:27:38;13.50;89.30
53926;DHT22;39836;52.754;6.866;2024-02-15T13:30:05;13.60;89.30
53926;DHT22;39836;52.754;6.866;2024-02-15T13:32:34;13.60;89.30
53926;DHT22;39836;52.754;6.866;2024-02-15T13:35:01;13.60;89.30
53926;DHT22;39836;52.754;6.866;2024-02-15T13:37:33;13.60;89.30
53926;DHT22;39836;52.754;6.866;2024-02-15T13:39:58;13.60;89.30
53926;DHT22;39836;52.754;6.866;2024-02-15T13:42:24;13.70;89.30
53926;DHT22;39836;52.754;6.866;2024-02-15T13:44:50;13.70;89.40
53926;DHT22;39836;52.754;6.866;2024-02-15T13:47:15;13.70;89.40
53926;DHT22;39836;52.754;6.866;2024-02-15T13:49:42;13.70;89.40
53926;DHT22;39836;52.754;6.866;2024-02-15T13:52:08;13.70;89.40
53926;DHT22;39836;52.754;6.866;2024-02-15T13:54:36;13.70;89.40
53926;DHT22;39836;52.754;6.866;2024-02-15T13:57:03;13.70;89.40
53926;DHT22;39836;52.754;6.866;2024-02-15T13:59:29;13.80;89.40
53926;DHT22;39836;52.754;6.866;2024-02-15T14:01:57;13.80;89.40
53926;DHT22;39836;52.754;6.866;2024-02-15T14:04:23;13.70;89.40
53926;DHT22;39836;52.754;6.866;2024-02-15T14:06:49;13.70;89.40
53926;DHT22;39836;52.754;6.866;2024-02-15T14:09:15;13.80;89.40
53926;DHT22;39836;52.754;6.866;2024-02-15T14:11:42;13.80;89.50
53926;DHT22;39836;52.754;6.866;2024-02-15T14:14:08;13.80;89.40
53926;DHT22;39836;52.754;6.866;2024-02-15T14:16:34;13.80;89.40
53926;DHT22;39836;52.754;6.866;2024-02-15T14:19:00;13.80;89.40
53926;DHT22;39836;52.754;6.866;2024-02-15T14:21:29;13.90;89.40
53926;DHT22;39836;52.754;6.866;2024-02-15T14:23:57;13.90;89.40
53926;DHT22;39836;52.754;6.866;2024-02-15T14:26:23;13.90;89.40
53926;DHT22;39836;52.754;6.866;2024-02-15T14:28:52;13.80;89.40
53926;DHT22;39836;52.754;6.866;2024-02-15T14:31:18;13.90;89.50
53926;DHT22;39836;52.754;6.866;2024-02-15T14:34:02;13.80;89.40
53926;DHT22;39836;52.754;6.866;2024-02-15T14:36:28;13.90;89.50
53926;DHT22;39836;52.754;6.866;2024-02-15T14:38:53;13.90;89.50
53926;DHT22;39836;52.754;6.866;2024-02-15T14:41:20;14.00;89.50
53926;DHT22;39836;52.754;6.866;2024-02-15T14:43:46;13.90;89.50
53926;DHT22;39836;52.754;6.866;2024-02-15T14:46:12;14.00;89.50
53926;DHT22;39836;52.754;6.866;2024-02-15T14:48:38;14.00;89.50
53926;DHT22;39836;52.754;6.866;2024-02-15T14:51:06;14.10;89.50
53926;DHT22;39836;52.754;6.866;2024-02-15T14:53:35;14.00;89.50
53926;DHT22;39836;52.754;6.866;2024-02-15T14:56:00;14.10;89.60
53926;DHT22;39836;52.754;6.866;2024-02-15T14:58:27;14.10;89.60
53926;DHT22;39836;52.754;6.866;2024-02-15T15:00:53;14.20;89.60
53926;DHT22;39836;52.754;6.866;2024-02-15T15:03:18;14.20;89.60
53926;DHT22;39836;52.754;6.866;2024-02-15T15:05:45;14.20;89.60
53926;DHT22;39836;52.754;6.866;2024-02-15T15:08:30;14.30;89.70
53926;DHT22;39836;52.754;6.866;2024-02-15T15:11:14;14.20;89.70
53926;DHT22;39836;52.754;6.866;2024-02-15T15:13:58;14.30;89.70
53926;DHT22;39836;52.754;6.866;2024-02-15T15:16:24;14.30;89.70
53926;DHT22;39836;52.754;6.866;2024-02-15T15:18:51;14.30;89.70
53926;DHT22;39836;52.754;6.866;2024-02-15T15:21:18;14.30;89.70
53926;DHT22;39836;52.754;6.866;2024-02-15T15:23:44;14.30;89.70
53926;DHT22;39836;52.754;6.866;2024-02-15T15:26:11;14.30;89.70
53926;DHT22;39836;52.754;6.866;2024-02-15T15:28:37;14.30;89.70
53926;DHT22;39836;52.754;6.866;2024-02-15T15:31:03;14.30;89.70
53926;DHT22;39836;52.754;6.866;2024-02-15T15:33:30;14.30;89.70
53926;DHT22;39836;52.754;6.866;2024-02-15T15:36:02;14.30;89.70
53926;DHT22;39836;52.754;6.866;2024-02-15T15:38:31;14.30;89.70
53926;DHT22;39836;52.754;6.866;2024-02-15T15:40:57;14.30;89.70
53926;DHT22;39836;52.754;6.866;2024-02-15T15:43:23;14.20;89.70
53926;DHT22;39836;52.754;6.866;2024-02-15T15:45:49;14.30;89.70
53926;DHT22;39836;52.754;6.866;2024-02-15T15:48:17;14.20;89.70
53926;DHT22;39836;52.754;6.866;2024-02-15T15:50:42;14.30;89.80
53926;DHT22;39836;52.754;6.866;2024-02-15T15:53:08;14.30;89.70